This demonstration page uses our WeatherBlox Daily Observations layout. Learn more.

38.89511, -77.03637

Hourly Observations for January 25, 2018

Temp ( °F °C ) Dew Point ( °F °C ) Humidity (%) Winds ( mph kmh ) Pressure ( in mb ) Visibility ( mi km ) Precip ( " mm )
12:52 am 00:52 Partly Cloudy 35 1.7 22 -5.6 59 59 W 6 9 30.25 1025 10 16.0934 0 0
1:52 am 01:52 Partly Cloudy 35 1.7 23 -5 61 61 W 10 17 30.27 1025 10 16.0934 0 0
2:52 am 02:52 Mostly Cloudy 34 1.1 21 -6.1 59 59 WNW 8 13 30.29 1026 10 16.0934 0 0
3:52 am 03:52 Mostly Cloudy 34 1.1 20 -6.7 56 56 W 8 13 30.3 1026 10 16.0934 0 0
4:52 am 04:52 Mostly Cloudy 34 1.1 19 -7.2 54 54 NNW 10 17 30.32 1027 10 16.0934 0 0
5:52 am 05:52 Partly Cloudy 33 0.6 19 -7.2 56 56 NNW 8 13 30.36 1028 10 16.0934 0 0
6:52 am 06:52 Mostly Clear 33 0.6 19 -7.2 56 56 NW 14 22 30.4 1029 10 16.0934 0 0
7:52 am 07:52 Mostly Sunny 33 0.6 16 -8.9 49 49 NNW 15 24 30.43 1031 10 16.0934 0 0
8:52 am 08:52 Mostly Sunny 35 1.7 16 -8.9 46 46 N 16 26 30.46 1032 10 16.0934 0 0
9:52 am 09:52 Mostly Sunny 35 1.7 16 -8.9 46 46 NW 20 31 30.49 1033 10 16.0934 0 0
10:52 am 10:52 Mostly Sunny 37 2.8 16 -8.9 42 42 NNW 21 33 30.52 1033 10 16.0934 0 0
11:52 am 11:52 Mostly Sunny 38 3.3 15 -9.4 39 39 NW 15 24 30.51 1033 10 16.0934 0 0
12:52 pm 12:52 Mostly Sunny 39 3.9 15 -9.4 38 38 NW 15 24 30.5 1033 10 16.0934 0 0
1:52 pm 13:52 Mostly Sunny 41 5 15 -9.4 35 35 NW 8 13 30.49 1033 10 16.0934 0 0
2:52 pm 14:52 Mostly Sunny 42 5.6 15 -9.4 33 33 NNW 10 17 30.5 1033 10 16.0934 0 0
3:52 pm 15:52 Mostly Sunny 41 5 15 -9.4 35 35 N 6 9 30.5 1033 10 16.0934 0 0
4:52 pm 16:52 Mostly Sunny 41 5 16 -8.9 36 36 NW 12 19 30.51 1033 10 16.0934 0 0
5:52 pm 17:52 Clear 39 3.9 16 -8.9 39 39 NW 9 15 30.53 1034 10 16.0934 0 0
6:52 pm 18:52 Clear 38 3.3 17 -8.3 43 43 NNW 8 13 30.56 1035 10 16.0934 0 0
7:52 pm 19:52 Clear 37 2.8 18 -7.8 46 46 NW 6 9 30.57 1035 10 16.0934 0 0
8:52 pm 20:52 Clear 34 1.1 18 -7.8 52 52 N 6 9 30.58 1036 10 16.0934 0 0
9:52 pm 21:52 Clear 33 0.6 19 -7.2 56 56 N 7 11 30.59 1036 10 16.0934 0 0
10:52 pm 22:52 Clear 34 1.1 18 -7.8 52 52 Calm 30.6 1036 10 16.0934 0 0
11:52 pm 23:52 Clear 33 0.6 19 -7.2 56 56 S 3 6 30.61 1037 10 16.0934 0 0

Powered by AerisWeather